createdAt,value
2019-04-05T00:02:31.086Z,11.30
2019-04-05T00:05:17.871Z,11.83
2019-04-05T00:08:04.513Z,11.67
2019-04-05T00:10:51.026Z,12.27
2019-04-05T00:13:37.565Z,12.30
2019-04-05T00:16:24.473Z,12.37
2019-04-05T00:19:10.974Z,13.90
2019-04-05T00:21:57.481Z,14.20
2019-04-05T00:24:44.331Z,13.80
2019-04-05T00:27:30.893Z,12.63
2019-04-05T00:30:17.429Z,13.40
2019-04-05T00:33:03.981Z,13.73
2019-04-05T00:35:50.818Z,13.90
2019-04-05T00:38:37.657Z,15.30
2019-04-05T00:41:24.522Z,14.83
2019-04-05T00:44:11.014Z,14.40
2019-04-05T00:46:57.894Z,14.53
2019-04-05T00:49:44.419Z,13.30
2019-04-05T00:52:31.158Z,13.77
2019-04-05T00:55:17.746Z,15.13
2019-04-05T00:58:04.276Z,13.90
2019-04-05T01:00:50.799Z,15.20
2019-04-05T01:03:37.596Z,15.73
2019-04-05T01:06:24.499Z,15.70
2019-04-05T01:09:11.126Z,15.37
2019-04-05T01:11:57.857Z,15.50
2019-04-05T01:14:45.428Z,16.40
2019-04-05T01:17:31.945Z,16.83
2019-04-05T01:20:18.738Z,16.70
2019-04-05T01:23:05.472Z,15.80
2019-04-05T01:25:51.930Z,15.87
2019-04-05T01:28:38.429Z,16.40
2019-04-05T01:31:25.342Z,16.93
2019-04-05T01:34:11.857Z,16.73
2019-04-05T01:36:58.374Z,17.53
2019-04-05T01:39:45.168Z,16.40
2019-04-05T01:42:31.726Z,18.30
2019-04-05T01:45:18.577Z,17.93
2019-04-05T01:48:06.130Z,17.80
2019-04-05T01:50:52.726Z,15.70
2019-04-05T01:53:39.194Z,17.10
2019-04-05T01:56:26.029Z,18.10
2019-04-05T01:59:12.690Z,17.93
2019-04-05T02:01:59.209Z,16.20
2019-04-05T02:04:45.746Z,16.37
2019-04-05T02:07:32.522Z,17.83
2019-04-05T02:10:19.282Z,18.07
2019-04-05T02:13:05.824Z,18.10
2019-04-05T02:16:05.145Z,18.60
2019-04-05T02:18:41.077Z,18.03
2019-04-05T02:21:27.622Z,18.20
2019-04-05T02:24:14.457Z,18.83
2019-04-05T02:27:00.952Z,18.00
2019-04-05T02:29:47.765Z,20.27
2019-04-05T02:32:34.671Z,18.30
2019-04-05T02:35:21.439Z,18.67
2019-04-05T02:38:08.164Z,17.27
2019-04-05T02:40:58.227Z,17.50
2019-04-05T02:43:43.198Z,18.77
2019-04-05T02:46:29.754Z,18.07
2019-04-05T02:49:16.497Z,17.93
2019-04-05T02:52:03.007Z,19.30
2019-04-05T02:54:49.885Z,18.30
2019-04-05T02:57:36.626Z,17.43
2019-04-05T03:00:23.390Z,19.40
2019-04-05T03:03:09.907Z,18.87
2019-04-05T03:05:56.710Z,18.50
2019-04-05T03:08:43.456Z,18.73
2019-04-05T03:11:30.342Z,19.07
2019-04-05T03:14:16.915Z,18.50
2019-04-05T03:17:03.394Z,19.37
2019-04-05T03:19:49.945Z,18.90
2019-04-05T03:22:36.487Z,18.10
2019-04-05T03:25:22.960Z,18.20
2019-04-05T03:28:09.511Z,18.50
2019-04-05T03:30:56.051Z,18.03
2019-04-05T03:33:42.962Z,18.93
2019-04-05T03:36:29.735Z,18.57
2019-04-05T03:39:16.533Z,19.17
2019-04-05T03:42:03.322Z,18.43
2019-04-05T03:44:49.838Z,18.23
2019-04-05T03:47:36.422Z,17.20
2019-04-05T03:50:23.213Z,18.23
2019-04-05T03:53:09.732Z,18.13
2019-04-05T03:55:56.615Z,17.50
2019-04-05T03:58:43.775Z,18.80
2019-04-05T04:01:30.513Z,17.70
2019-04-05T04:04:17.026Z,17.80
2019-04-05T04:07:03.500Z,18.27
2019-04-05T04:09:50.258Z,18.43
2019-04-05T04:12:37.287Z,18.60
2019-04-05T04:15:23.922Z,17.83
2019-04-05T04:18:10.768Z,19.70
2019-04-05T04:20:57.501Z,20.17
2019-04-05T04:23:44.115Z,20.30
2019-04-05T04:26:30.962Z,19.47
2019-04-05T04:29:17.810Z,20.07
2019-04-05T04:32:04.422Z,21.10
2019-04-05T04:34:51.282Z,19.57
2019-04-05T04:37:37.865Z,20.73
2019-04-05T04:40:24.778Z,19.83
2019-04-05T04:43:11.466Z,19.97
2019-04-05T04:45:58.014Z,19.33
2019-04-05T04:48:44.627Z,20.17
2019-04-05T04:51:31.187Z,21.63
2019-04-05T04:54:17.765Z,23.07
2019-04-05T04:57:04.696Z,22.30
2019-04-05T04:59:51.423Z,21.00
2019-04-05T05:02:38.169Z,19.43
2019-04-05T05:05:24.770Z,20.77
2019-04-05T05:08:11.581Z,20.00
2019-04-05T05:10:58.207Z,21.13
2019-04-05T05:13:44.863Z,19.43
2019-04-05T05:16:31.620Z,20.33
2019-04-05T05:19:18.195Z,20.63
2019-04-05T05:22:05.105Z,21.63
2019-04-05T05:24:51.865Z,20.27
2019-04-05T05:27:38.672Z,20.63
2019-04-05T05:30:25.586Z,19.27
2019-04-05T05:33:12.426Z,19.80
2019-04-05T05:35:59.324Z,19.73
2019-04-05T05:38:45.984Z,21.10
2019-04-05T05:41:32.964Z,20.43
2019-04-05T05:44:19.745Z,21.10
2019-04-05T05:47:06.681Z,21.63
2019-04-05T05:49:53.469Z,20.07
2019-04-05T05:52:40.370Z,19.67
2019-04-05T05:55:29.917Z,20.03
2019-04-05T05:58:15.833Z,20.93
2019-04-05T06:01:02.829Z,20.43
2019-04-05T06:03:49.661Z,20.43
2019-04-05T06:06:36.326Z,21.40
2019-04-05T06:09:22.896Z,20.50
2019-04-05T06:12:09.377Z,18.53
2019-04-05T06:14:56.270Z,19.67
2019-04-05T06:17:42.784Z,19.67
2019-04-05T06:20:29.601Z,18.23
2019-04-05T06:23:16.196Z,19.73
2019-04-05T06:26:02.944Z,19.10
2019-04-05T06:28:49.541Z,19.50
2019-04-05T06:31:36.579Z,20.17
2019-04-05T06:34:23.410Z,18.97
2019-04-05T06:37:10.221Z,20.00
2019-04-05T06:39:56.872Z,19.07
2019-04-05T06:42:43.417Z,18.60
2019-04-05T06:45:29.921Z,19.33
2019-04-05T06:48:19.434Z,18.50
2019-04-05T06:51:05.345Z,18.80
2019-04-05T06:53:52.182Z,18.93
2019-04-05T06:56:38.845Z,18.93
2019-04-05T06:59:25.682Z,18.57
2019-04-05T07:02:12.514Z,17.47
2019-04-05T07:04:59.330Z,17.60
2019-04-05T07:07:45.956Z,18.20
2019-04-05T07:10:32.457Z,17.60
2019-04-05T07:13:20.055Z,17.97
2019-04-05T07:16:06.893Z,18.53
2019-04-05T07:18:54.530Z,17.53
2019-04-05T07:21:41.047Z,17.63
2019-04-05T07:24:27.659Z,19.10
2019-04-05T07:27:14.440Z,18.00
2019-04-05T07:30:01.128Z,18.17
2019-04-05T07:32:48.082Z,18.70
2019-04-05T07:35:34.537Z,19.53
2019-04-05T07:38:21.106Z,20.23
2019-04-05T07:41:08.050Z,19.07
2019-04-05T07:43:54.850Z,19.13
2019-04-05T07:46:41.602Z,18.90
2019-04-05T07:49:28.230Z,18.13
2019-04-05T07:52:14.808Z,19.00
2019-04-05T07:55:01.581Z,18.50
2019-04-05T07:57:49.215Z,17.40
2019-04-05T08:00:35.705Z,19.10
2019-04-05T08:03:22.446Z,19.40
2019-04-05T08:06:09.361Z,19.27
2019-04-05T08:08:56.145Z,19.17
2019-04-05T08:11:42.951Z,20.13
2019-04-05T08:14:29.482Z,17.97
2019-04-05T08:17:16.270Z,19.97
2019-04-05T08:20:03.069Z,19.20
2019-04-05T08:22:49.549Z,18.13
2019-04-05T08:25:36.491Z,19.17
2019-04-05T08:28:23.253Z,17.43
2019-04-05T08:31:11.059Z,18.57
2019-04-05T08:33:58.721Z,18.80
2019-04-05T08:36:45.513Z,17.67
2019-04-05T08:39:33.074Z,18.90
2019-04-05T08:42:19.789Z,16.83
2019-04-05T08:45:06.504Z,16.10
2019-04-05T08:47:53.062Z,18.43
2019-04-05T08:50:39.710Z,18.10
2019-04-05T08:53:26.559Z,18.37
2019-04-05T08:56:13.356Z,16.70
2019-04-05T08:59:00.016Z,18.47
2019-04-05T09:01:46.692Z,18.87
2019-04-05T09:04:33.278Z,17.97
2019-04-05T09:07:19.901Z,16.90
2019-04-05T09:10:06.443Z,15.53
2019-04-05T09:12:53.030Z,14.17
2019-04-05T09:15:40.669Z,16.57
2019-04-05T09:18:27.467Z,14.43
2019-04-05T09:21:14.276Z,16.27
2019-04-05T09:24:00.887Z,13.53
2019-04-05T09:26:47.656Z,13.50
2019-04-05T09:29:34.448Z,14.10
2019-04-05T09:32:21.085Z,14.83
2019-04-05T09:35:07.877Z,14.40
2019-04-05T09:37:54.388Z,14.07
2019-04-05T09:40:41.285Z,13.77
2019-04-05T09:43:27.821Z,14.33
2019-04-05T09:46:14.652Z,14.90
2019-04-05T09:49:01.442Z,14.30
2019-04-05T09:51:47.969Z,12.67
2019-04-05T09:54:34.808Z,12.83
2019-04-05T09:57:21.321Z,14.57
2019-04-05T10:00:09.762Z,15.53
2019-04-05T10:02:56.737Z,14.73
2019-04-05T10:05:43.295Z,15.37
2019-04-05T10:08:29.965Z,14.40
2019-04-05T10:11:17.421Z,14.40
2019-04-05T10:14:04.333Z,14.23
2019-04-05T10:16:51.182Z,14.57
2019-04-05T10:19:49.301Z,14.57
2019-04-05T10:22:26.253Z,15.73
2019-04-05T10:25:12.798Z,16.03
2019-04-05T10:27:59.620Z,15.80
2019-04-05T10:30:46.125Z,15.87
2019-04-05T10:33:32.997Z,15.50
2019-04-05T10:36:20.105Z,14.73
2019-04-05T10:39:08.404Z,15.67
2019-04-05T10:42:03.242Z,14.30
2019-04-05T10:44:43.673Z,13.97
2019-04-05T10:47:30.170Z,15.93
2019-04-05T10:50:16.904Z,15.33
2019-04-05T10:53:03.900Z,13.37
2019-04-05T10:55:50.636Z,13.63
2019-04-05T10:58:37.377Z,12.43
2019-04-05T11:01:23.993Z,12.90
2019-04-05T11:04:10.579Z,11.50
2019-04-05T11:06:57.319Z,12.33
2019-04-05T11:09:44.061Z,11.97
2019-04-05T11:12:31.563Z,11.30
2019-04-05T11:15:18.115Z,11.43
2019-04-05T11:18:04.956Z,11.50
2019-04-05T11:20:51.550Z,10.80
2019-04-05T11:23:38.101Z,10.57
2019-04-05T11:26:24.933Z,9.27
2019-04-05T11:29:12.711Z,10.70
2019-04-05T11:31:59.718Z,10.30
2019-04-05T11:34:46.281Z,9.67
2019-04-05T11:37:33.142Z,10.80
2019-04-05T11:40:19.709Z,11.17
2019-04-05T11:43:06.603Z,11.23
2019-04-05T11:45:53.422Z,10.77
2019-04-05T11:48:41.351Z,10.63
2019-04-05T11:51:28.343Z,10.53
2019-04-05T11:54:15.016Z,10.77
2019-04-05T11:57:01.807Z,10.07
2019-04-05T11:59:48.786Z,10.20
2019-04-05T12:02:37.840Z,9.57
2019-04-05T12:05:26.947Z,11.67
2019-04-05T12:08:12.777Z,11.23
2019-04-05T12:10:59.345Z,10.47
2019-04-05T12:13:47.771Z,10.47
2019-04-05T12:16:36.218Z,10.60
2019-04-05T12:19:23.353Z,11.67
2019-04-05T12:22:09.909Z,11.83
2019-04-05T12:24:56.401Z,12.53
2019-04-05T12:27:43.195Z,12.73
2019-04-05T12:30:30.185Z,12.60
2019-04-05T12:33:19.269Z,12.73
2019-04-05T12:36:05.519Z,11.93
2019-04-05T12:38:54.157Z,12.80
2019-04-05T12:41:40.993Z,12.23
2019-04-05T12:44:28.241Z,11.87
2019-04-05T12:47:15.777Z,13.43
2019-04-05T12:50:03.026Z,13.27
2019-04-05T12:52:49.649Z,12.07
2019-04-05T12:55:36.396Z,12.97
2019-04-05T12:58:25.472Z,12.70
2019-04-05T13:01:11.533Z,12.77
2019-04-05T13:03:58.762Z,12.37
2019-04-05T13:06:45.667Z,13.03
2019-04-05T13:09:32.273Z,13.67
2019-04-05T13:12:19.134Z,13.00
2019-04-05T13:15:12.832Z,13.37
2019-04-05T13:17:53.986Z,13.23
2019-04-05T13:20:40.538Z,14.00
2019-04-05T13:23:26.994Z,13.30
2019-04-05T13:26:13.789Z,13.33
2019-04-05T13:29:00.310Z,13.27
2019-04-05T13:31:48.698Z,13.50
2019-04-05T13:34:35.011Z,12.33
2019-04-05T13:37:21.909Z,12.10
2019-04-05T13:40:08.369Z,13.50
2019-04-05T13:42:55.182Z,13.43
2019-04-05T13:45:41.796Z,13.70
2019-04-05T13:48:28.584Z,13.63
2019-04-05T13:51:27.233Z,14.03
2019-04-05T13:54:03.558Z,13.57
2019-04-05T13:56:50.331Z,14.37
2019-04-05T13:59:36.963Z,13.80
2019-04-05T14:02:23.603Z,13.50
2019-04-05T14:05:10.641Z,13.27
2019-04-05T14:08:09.675Z,13.97
2019-04-05T14:10:45.706Z,15.17
2019-04-05T14:13:32.562Z,12.73
2019-04-05T14:16:19.342Z,13.30
2019-04-05T14:19:06.101Z,14.03
2019-04-05T14:21:53.719Z,13.73
2019-04-05T14:24:41.413Z,13.60
2019-04-05T14:27:27.953Z,14.00
2019-04-05T14:30:14.893Z,12.37
2019-04-05T14:33:01.709Z,13.00
2019-04-05T14:35:48.210Z,12.67
2019-04-05T14:38:35.102Z,12.80
2019-04-05T14:41:21.603Z,13.13
2019-04-05T14:44:08.360Z,13.20
2019-04-05T14:46:55.891Z,11.77
2019-04-05T14:49:43.512Z,12.77
2019-04-05T14:52:32.133Z,12.53
2019-04-05T14:55:30.588Z,12.50
2019-04-05T14:58:19.379Z,11.63
2019-04-05T15:01:06.078Z,12.10
2019-04-05T15:03:52.666Z,12.47
2019-04-05T15:06:39.441Z,12.03
2019-04-05T15:09:26.253Z,11.83
2019-04-05T15:12:12.860Z,12.63
2019-04-05T15:14:59.783Z,12.50
2019-04-05T15:17:48.338Z,12.17
2019-04-05T15:20:35.430Z,12.80
2019-04-05T15:23:22.404Z,11.60
2019-04-05T15:26:08.924Z,12.43
2019-04-05T15:28:55.835Z,12.00
2019-04-05T15:31:42.425Z,12.03
2019-04-05T15:34:29.277Z,13.23
2019-04-05T15:37:16.386Z,13.30
2019-04-05T15:40:04.025Z,12.90
2019-04-05T15:42:50.809Z,12.80
2019-04-05T15:45:42.882Z,12.93
2019-04-05T15:48:29.610Z,12.20
2019-04-05T15:51:16.397Z,12.67
2019-04-05T15:54:02.869Z,13.67
2019-04-05T15:56:49.401Z,12.30
2019-04-05T15:59:36.274Z,12.30
2019-04-05T16:02:22.784Z,13.33
2019-04-05T16:05:09.606Z,12.57
2019-04-05T16:07:56.177Z,13.90
2019-04-05T16:10:45.492Z,12.70
2019-04-05T16:13:30.950Z,12.70
2019-04-05T16:16:17.560Z,12.70
2019-04-05T16:19:04.229Z,14.17
2019-04-05T16:21:50.805Z,13.03
2019-04-05T16:24:37.441Z,13.43
2019-04-05T16:27:24.425Z,12.27
2019-04-05T16:30:10.933Z,13.60
2019-04-05T16:32:57.512Z,14.27
2019-04-05T16:35:44.438Z,12.37
2019-04-05T16:38:30.928Z,13.53
2019-04-05T16:41:17.773Z,13.40
2019-04-05T16:44:04.490Z,14.70
2019-04-05T16:46:51.061Z,13.23
2019-04-05T16:49:37.593Z,14.30
2019-04-05T16:52:24.381Z,16.03
2019-04-05T16:55:11.149Z,15.87
2019-04-05T16:57:57.791Z,16.77
2019-04-05T17:00:44.671Z,16.73
2019-04-05T17:03:31.217Z,20.50
2019-04-05T17:06:18.029Z,16.80
2019-04-05T17:09:05.101Z,15.50
2019-04-05T17:11:53.454Z,15.97
2019-04-05T17:14:40.237Z,15.07
2019-04-05T17:17:26.828Z,16.20
2019-04-05T17:20:13.642Z,15.33
2019-04-05T17:23:00.449Z,18.40
2019-04-05T17:25:47.148Z,16.70
2019-04-05T17:28:33.961Z,17.50
2019-04-05T17:31:20.621Z,19.37
2019-04-05T17:34:07.212Z,18.93
2019-04-05T17:36:53.722Z,19.37
2019-04-05T17:39:40.245Z,16.90
2019-04-05T17:42:27.032Z,18.03
2019-04-05T17:45:13.589Z,17.73
2019-04-05T17:48:00.369Z,18.17
2019-04-05T17:50:48.029Z,19.33
2019-04-05T17:53:34.621Z,18.17
2019-04-05T17:56:22.428Z,18.93
2019-04-05T17:59:09.279Z,16.87
2019-04-05T18:01:55.941Z,17.63
2019-04-05T18:04:42.706Z,18.50
2019-04-05T18:07:29.525Z,18.70
2019-04-05T18:10:16.166Z,19.43
2019-04-05T18:13:02.653Z,17.77
2019-04-05T18:15:52.683Z,18.10
2019-04-05T18:18:37.723Z,18.10
2019-04-05T18:21:24.468Z,20.47
2019-04-05T18:24:12.092Z,18.87
2019-04-05T18:26:58.941Z,18.67
2019-04-05T18:29:45.719Z,18.57
2019-04-05T18:32:32.257Z,17.73
2019-04-05T18:35:18.777Z,19.03
2019-04-05T18:38:05.536Z,19.77
2019-04-05T18:40:52.502Z,19.90
2019-04-05T18:43:39.345Z,18.40
2019-04-05T18:46:26.184Z,18.47
2019-04-05T18:49:12.706Z,18.03
2019-04-05T18:51:59.493Z,17.90
2019-04-05T18:54:46.254Z,19.67
2019-04-05T18:57:32.818Z,19.47
2019-04-05T19:00:19.308Z,19.03
2019-04-05T19:03:05.835Z,19.40
2019-04-05T19:05:52.369Z,19.27
2019-04-05T19:08:40.070Z,19.60
2019-04-05T19:11:27.106Z,19.67
2019-04-05T19:14:14.085Z,18.17
2019-04-05T19:17:01.030Z,19.17
2019-04-05T19:19:47.937Z,18.90
2019-04-05T19:22:34.733Z,18.87
2019-04-05T19:25:21.291Z,20.17
2019-04-05T19:28:08.250Z,19.77
2019-04-05T19:50:34.221Z,18.17
2019-04-05T19:53:20.798Z,18.57
2019-04-05T19:56:07.373Z,18.73
2019-04-05T19:58:53.942Z,18.57
2019-04-05T20:01:40.499Z,18.17
2019-04-05T20:04:27.271Z,18.30
2019-04-05T20:07:13.981Z,17.63
2019-04-05T20:10:00.741Z,19.20
2019-04-05T20:12:47.830Z,19.03
2019-04-05T20:15:34.372Z,18.93
2019-04-05T20:18:20.944Z,18.77
2019-04-05T20:21:07.757Z,19.73
2019-04-05T20:23:54.375Z,20.03
2019-04-05T20:26:41.193Z,20.47
2019-04-05T20:29:27.993Z,20.37
2019-04-05T20:32:14.841Z,20.67
2019-04-05T20:35:02.967Z,18.63
2019-04-05T20:37:49.824Z,19.67
2019-04-05T20:40:36.661Z,18.53
2019-04-05T20:43:23.338Z,19.23
2019-04-05T20:46:09.902Z,21.37
2019-04-05T20:48:56.440Z,20.63
2019-04-05T20:51:44.358Z,20.57
2019-04-05T20:54:30.846Z,20.07
2019-04-05T20:57:17.414Z,20.23
2019-04-05T21:00:04.301Z,20.73
2019-04-05T21:02:52.661Z,21.50
2019-04-05T21:05:39.206Z,21.97
2019-04-05T21:08:25.989Z,22.73
2019-04-05T21:11:12.581Z,21.67
2019-04-05T21:13:59.346Z,20.13
2019-04-05T21:16:45.994Z,19.10
2019-04-05T21:19:32.605Z,19.70
2019-04-05T21:22:19.338Z,20.23
2019-04-05T21:25:05.881Z,19.70
2019-04-05T21:27:52.686Z,19.53
2019-04-05T21:30:40.218Z,19.43
2019-04-05T21:33:27.959Z,19.37
2019-04-05T21:36:14.871Z,19.50
2019-04-05T21:39:01.625Z,20.80
2019-04-05T21:41:50.071Z,20.53
2019-04-05T21:44:38.295Z,22.00
2019-04-05T21:47:25.037Z,20.53
2019-04-05T21:50:11.520Z,20.33
2019-04-05T21:52:58.093Z,21.90
2019-04-05T21:55:44.905Z,19.27
2019-04-05T21:58:31.421Z,21.20
2019-04-05T22:01:17.957Z,20.27
2019-04-05T22:04:06.555Z,22.40
2019-04-05T22:06:53.288Z,20.47
2019-04-05T22:09:40.033Z,21.23
2019-04-05T22:12:31.388Z,21.40
2019-04-05T22:15:17.935Z,22.87
2019-04-05T22:18:04.726Z,21.13
2019-04-05T22:20:51.487Z,21.97
2019-04-05T22:23:38.146Z,21.93
2019-04-05T22:26:24.641Z,22.47
2019-04-05T22:29:11.316Z,22.57
2019-04-05T22:31:58.248Z,22.30
2019-04-05T22:34:44.786Z,21.37
2019-04-05T22:37:31.372Z,23.00
2019-04-05T22:40:18.366Z,23.53
2019-04-05T22:43:05.093Z,23.30
2019-04-05T22:45:51.882Z,21.50
2019-04-05T22:48:38.557Z,23.30
2019-04-05T22:51:25.080Z,22.13
2019-04-05T22:54:11.631Z,23.53
2019-04-05T22:56:58.296Z,24.07
2019-04-05T22:59:44.789Z,22.60
2019-04-05T23:02:31.341Z,22.60
2019-04-05T23:05:18.028Z,23.63
2019-04-05T23:08:04.716Z,23.57
2019-04-05T23:10:51.525Z,23.17
2019-04-05T23:13:38.410Z,23.43
2019-04-05T23:16:25.144Z,22.33
2019-04-05T23:19:11.885Z,23.83
2019-04-05T23:22:00.801Z,23.50
2019-04-05T23:24:46.993Z,22.00
2019-04-05T23:27:33.775Z,21.27
2019-04-05T23:30:21.572Z,22.87
2019-04-05T23:33:08.442Z,23.00
2019-04-05T23:35:55.225Z,22.90
2019-04-05T23:38:42.093Z,22.57
2019-04-05T23:41:28.701Z,22.73
2019-04-05T23:44:15.430Z,23.50
2019-04-05T23:47:02.291Z,23.60
2019-04-05T23:49:48.885Z,22.90
2019-04-05T23:52:35.428Z,23.33
2019-04-05T23:55:32.555Z,24.40
2019-04-05T23:58:10.692Z,23.80
